createdAt,value
2018-09-26T00:00:27.091Z,9.21
2018-09-26T00:01:07.644Z,9.23
2018-09-26T00:01:48.197Z,9.23
2018-09-26T00:02:28.802Z,9.13
2018-09-26T00:03:09.377Z,9.16
2018-09-26T00:03:49.935Z,9.1
2018-09-26T00:04:30.511Z,9.25
2018-09-26T00:05:11.073Z,9.08
2018-09-26T00:05:51.636Z,9.11
2018-09-26T00:06:32.211Z,9.14
2018-09-26T00:07:12.792Z,9.1
2018-09-26T00:07:53.363Z,9.1
2018-09-26T00:08:33.923Z,9.13
2018-09-26T00:09:14.511Z,9.11
2018-09-26T00:09:55.090Z,9.1
2018-09-26T00:10:35.670Z,9.02
2018-09-26T00:11:16.239Z,9.16
2018-09-26T00:11:56.802Z,9.1
2018-09-26T00:12:37.346Z,9.1
2018-09-26T00:13:17.971Z,9.16
2018-09-26T00:13:58.467Z,9.11
2018-09-26T00:14:39.043Z,9.13
2018-09-26T00:15:19.606Z,9.06
2018-09-26T00:16:00.189Z,9.08
2018-09-26T00:16:40.766Z,9.04
2018-09-26T00:17:21.310Z,9.11
2018-09-26T00:18:01.858Z,9.1
2018-09-26T00:18:42.464Z,9.1
2018-09-26T00:19:23.021Z,9.1
2018-09-26T00:20:03.567Z,9.1
2018-09-26T00:20:44.134Z,9.1
2018-09-26T00:21:24.753Z,9.06
2018-09-26T00:22:05.332Z,9.1
2018-09-26T00:22:45.914Z,9.02
2018-09-26T00:23:26.485Z,9.16
2018-09-26T00:24:07.071Z,9.13
2018-09-26T00:24:47.639Z,9
2018-09-26T00:25:28.206Z,9.13
2018-09-26T00:26:08.955Z,9.02
2018-09-26T00:26:49.566Z,9.04
2018-09-26T00:27:30.115Z,9
2018-09-26T00:28:10.678Z,9.03
2018-09-26T00:28:51.239Z,8.97
2018-09-26T00:29:31.830Z,8.94
2018-09-26T00:30:12.383Z,8.94
2018-09-26T00:30:52.939Z,8.95
2018-09-26T00:31:33.490Z,8.91
2018-09-26T00:32:14.038Z,8.95
2018-09-26T00:32:54.638Z,8.99
2018-09-26T00:33:35.204Z,8.92
2018-09-26T00:34:15.761Z,8.94
2018-09-26T00:34:56.321Z,8.97
2018-09-26T00:35:36.885Z,8.97
2018-09-26T00:36:17.611Z,8.88
2018-09-26T00:36:58.029Z,8.95
2018-09-26T00:37:38.606Z,9.06
2018-09-26T00:38:19.154Z,8.94
2018-09-26T00:38:59.736Z,9.03
2018-09-26T00:39:40.293Z,8.95
2018-09-26T00:40:20.857Z,8.99
2018-09-26T00:41:01.423Z,8.94
2018-09-26T00:41:41.982Z,8.95
2018-09-26T00:42:22.534Z,8.95
2018-09-26T00:43:03.083Z,8.94
2018-09-26T00:43:43.653Z,8.97
2018-09-26T00:44:24.236Z,9.03
2018-09-26T00:45:04.792Z,8.87
2018-09-26T00:45:45.345Z,8.91
2018-09-26T00:46:25.926Z,8.94
2018-09-26T00:47:06.501Z,8.88
2018-09-26T00:47:47.047Z,8.85
2018-09-26T00:48:27.597Z,8.91
2018-09-26T00:49:08.161Z,8.92
2018-09-26T00:49:48.727Z,8.92
2018-09-26T00:50:29.289Z,8.92
2018-09-26T00:51:09.859Z,8.94
2018-09-26T00:51:50.415Z,8.97
2018-09-26T00:52:31.002Z,8.99
2018-09-26T00:53:11.570Z,8.87
2018-09-26T00:53:52.148Z,8.94
2018-09-26T00:54:32.705Z,8.91
2018-09-26T00:55:13.268Z,8.89
2018-09-26T00:55:53.833Z,8.88
2018-09-26T00:56:34.395Z,8.89
2018-09-26T00:57:14.998Z,8.85
2018-09-26T00:57:55.561Z,8.92
2018-09-26T00:58:36.111Z,8.81
2018-09-26T00:59:16.667Z,8.81
2018-09-26T00:59:57.256Z,8.84
2018-09-26T01:00:37.813Z,8.88
2018-09-26T01:01:18.373Z,8.89
2018-09-26T01:01:58.935Z,8.88
2018-09-26T01:02:39.534Z,8.92
2018-09-26T01:03:20.083Z,8.91
2018-09-26T01:04:00.640Z,8.88
2018-09-26T01:04:41.183Z,8.94
2018-09-26T01:05:21.756Z,8.88
2018-09-26T01:06:02.318Z,8.87
2018-09-26T01:06:42.871Z,8.92
2018-09-26T01:07:23.438Z,8.88
2018-09-26T01:08:04.042Z,8.89
2018-09-26T01:08:44.570Z,8.85
2018-09-26T01:09:25.144Z,8.92
2018-09-26T01:10:05.696Z,8.95
2018-09-26T01:10:46.251Z,8.92
2018-09-26T01:11:26.805Z,8.94
2018-09-26T01:12:07.364Z,8.94
2018-09-26T01:12:47.915Z,8.89
2018-09-26T01:13:28.476Z,8.91
2018-09-26T01:14:09.027Z,8.88
2018-09-26T01:14:49.659Z,8.81
2018-09-26T01:15:30.204Z,8.78
2018-09-26T01:16:10.765Z,8.79
2018-09-26T01:16:51.314Z,8.7
2018-09-26T01:17:31.881Z,8.73
2018-09-26T01:18:12.456Z,8.82
2018-09-26T01:18:53.040Z,8.74
2018-09-26T01:19:33.607Z,8.79
2018-09-26T01:20:14.184Z,8.81
2018-09-26T01:20:54.761Z,8.79
2018-09-26T01:21:35.310Z,8.74
2018-09-26T01:22:15.873Z,8.76
2018-09-26T01:22:56.456Z,8.76
2018-09-26T01:23:37.020Z,8.74
2018-09-26T01:24:17.580Z,8.74
2018-09-26T01:24:58.135Z,8.76
2018-09-26T01:25:38.683Z,8.79
2018-09-26T01:26:19.232Z,8.78
2018-09-26T01:26:59.779Z,8.74
2018-09-26T01:27:40.351Z,8.73
2018-09-26T01:28:20.941Z,8.74
2018-09-26T01:29:01.496Z,8.84
2018-09-26T01:29:42.061Z,8.74
2018-09-26T01:30:22.629Z,8.82
2018-09-26T01:31:03.205Z,8.81
2018-09-26T01:31:43.776Z,8.71
2018-09-26T01:32:24.348Z,8.76
2018-09-26T01:33:04.937Z,8.84
2018-09-26T01:33:45.508Z,8.74
2018-09-26T01:34:26.048Z,8.76
2018-09-26T01:35:06.610Z,8.81
2018-09-26T01:35:47.169Z,8.78
2018-09-26T01:36:27.748Z,8.85
2018-09-26T01:37:08.286Z,8.78
2018-09-26T01:37:48.845Z,8.79
2018-09-26T01:38:29.443Z,8.85
2018-09-26T01:39:10.007Z,8.73
2018-09-26T01:39:50.571Z,8.81
2018-09-26T01:40:31.146Z,8.78
2018-09-26T01:41:11.735Z,8.78
2018-09-26T01:41:52.332Z,8.74
2018-09-26T01:42:32.886Z,8.71
2018-09-26T01:43:13.432Z,8.78
2018-09-26T01:43:53.986Z,8.79
2018-09-26T01:44:34.589Z,8.82
2018-09-26T01:45:15.153Z,8.78
2018-09-26T01:45:55.711Z,8.73
2018-09-26T01:46:36.270Z,8.88
2018-09-26T01:47:16.817Z,8.78
2018-09-26T01:47:57.386Z,8.78
2018-09-26T01:48:37.938Z,8.84
2018-09-26T01:49:18.489Z,8.73
2018-09-26T01:49:59.095Z,8.74
2018-09-26T01:50:39.666Z,8.76
2018-09-26T01:51:20.216Z,8.78
2018-09-26T01:52:00.769Z,8.82
2018-09-26T01:52:41.341Z,8.78
2018-09-26T01:53:21.930Z,8.76
2018-09-26T01:54:02.482Z,8.85
2018-09-26T01:54:43.045Z,8.79
2018-09-26T01:55:23.624Z,8.76
2018-09-26T01:56:04.257Z,8.79
2018-09-26T01:56:44.825Z,8.79
2018-09-26T01:57:25.382Z,8.82
2018-09-26T01:58:07.985Z,8.76
2018-09-26T01:58:52.380Z,8.81
2018-09-26T01:59:35.954Z,8.79
2018-09-26T02:00:19.946Z,8.81
2018-09-26T02:01:02.440Z,8.76
2018-09-26T02:01:46.430Z,8.74
2018-09-26T02:02:28.896Z,8.74
2018-09-26T02:03:12.409Z,8.78
2018-09-26T02:03:56.426Z,8.81
2018-09-26T02:04:38.912Z,8.74
2018-09-26T02:05:21.901Z,8.82
2018-09-26T02:06:05.479Z,8.78
2018-09-26T02:06:48.396Z,8.79
2018-09-26T02:07:32.969Z,8.79
2018-09-26T02:08:18.908Z,8.79
2018-09-26T02:09:04.440Z,8.76
2018-09-26T02:09:47.977Z,8.81
2018-09-26T02:10:30.395Z,8.79
2018-09-26T02:11:14.922Z,8.76
2018-09-26T02:11:58.752Z,8.78
2018-09-26T02:12:43.877Z,8.7
2018-09-26T02:13:29.480Z,8.81
2018-09-26T02:14:11.211Z,8.73
2018-09-26T02:14:57.993Z,8.74
2018-09-26T02:15:40.975Z,8.69
2018-09-26T02:16:24.494Z,8.66
2018-09-26T02:17:07.957Z,8.61
2018-09-26T02:17:52.036Z,8.69
2018-09-26T02:18:34.374Z,8.71
2018-09-26T02:19:19.069Z,8.61
2018-09-26T02:19:58.964Z,8.66
2018-09-26T02:20:39.738Z,8.61
2018-09-26T02:21:20.797Z,8.66
2018-09-26T02:22:01.966Z,8.69
2018-09-26T02:22:43.944Z,8.67
2018-09-26T02:23:24.428Z,8.64
2018-09-26T02:24:04.951Z,8.58
2018-09-26T02:24:45.628Z,8.58
2018-09-26T02:25:26.184Z,8.61
2018-09-26T02:26:06.770Z,8.61
2018-09-26T02:26:47.319Z,8.56
2018-09-26T02:27:27.867Z,8.61
2018-09-26T02:28:08.451Z,8.64
2018-09-26T02:28:49.031Z,8.6
2018-09-26T02:29:29.588Z,8.58
2018-09-26T02:30:10.163Z,8.56
2018-09-26T02:30:50.733Z,8.61
2018-09-26T02:31:31.286Z,8.64
2018-09-26T02:32:11.850Z,8.67
2018-09-26T02:32:52.439Z,8.63
2018-09-26T02:33:33.016Z,8.6
2018-09-26T02:34:13.578Z,8.61
2018-09-26T02:34:54.157Z,8.6
2018-09-26T02:35:34.730Z,8.53
2018-09-26T02:36:15.296Z,8.6
2018-09-26T02:36:55.888Z,8.53
2018-09-26T02:37:36.449Z,8.52
2018-09-26T02:38:17.049Z,8.46
2018-09-26T02:38:57.600Z,8.52
2018-09-26T02:39:38.154Z,8.51
2018-09-26T02:40:18.778Z,8.56
2018-09-26T02:40:59.346Z,8.52
2018-09-26T02:41:39.912Z,8.42
2018-09-26T02:42:20.473Z,8.52
2018-09-26T02:43:01.048Z,8.49
2018-09-26T02:43:41.611Z,8.48
2018-09-26T02:44:22.176Z,8.55
2018-09-26T02:45:02.737Z,8.38
2018-09-26T02:45:43.305Z,8.51
2018-09-26T02:46:23.851Z,8.46
2018-09-26T02:47:04.592Z,8.48
2018-09-26T02:47:45.174Z,8.52
2018-09-26T02:48:25.731Z,8.49
2018-09-26T02:49:06.318Z,8.48
2018-09-26T02:49:46.881Z,8.46
2018-09-26T02:50:27.458Z,8.38
2018-09-26T02:51:08.027Z,8.52
2018-09-26T02:51:48.596Z,8.45
2018-09-26T02:52:29.135Z,8.52
2018-09-26T02:53:09.691Z,8.56
2018-09-26T02:53:50.248Z,8.46
2018-09-26T02:54:30.808Z,8.52
2018-09-26T02:55:11.411Z,8.44
2018-09-26T02:55:52.076Z,8.51
2018-09-26T02:56:32.531Z,8.45
2018-09-26T02:57:13.103Z,8.41
2018-09-26T02:57:53.700Z,8.44
2018-09-26T02:58:34.282Z,8.45
2018-09-26T02:59:14.874Z,8.49
2018-09-26T02:59:55.447Z,8.53
2018-09-26T03:00:36.017Z,8.52
2018-09-26T03:01:16.585Z,8.52
2018-09-26T03:01:57.133Z,8.46
2018-09-26T03:02:37.701Z,8.48
2018-09-26T03:03:18.324Z,8.52
2018-09-26T03:03:58.895Z,8.46
2018-09-26T03:04:39.494Z,8.42
2018-09-26T03:05:20.105Z,8.49
2018-09-26T03:06:00.763Z,8.48
2018-09-26T03:06:41.321Z,8.42
2018-09-26T03:07:21.893Z,8.41
2018-09-26T03:08:02.471Z,8.45
2018-09-26T03:08:43.017Z,8.44
2018-09-26T03:09:23.595Z,8.44
2018-09-26T03:10:04.165Z,8.48
2018-09-26T03:10:44.734Z,8.38
2018-09-26T03:11:25.388Z,8.44
2018-09-26T03:12:05.983Z,8.44
2018-09-26T03:12:46.564Z,8.49
2018-09-26T03:13:27.121Z,8.41
2018-09-26T03:14:07.699Z,8.37
2018-09-26T03:14:48.665Z,8.44
2018-09-26T03:15:29.168Z,8.45
2018-09-26T03:16:09.744Z,8.44
2018-09-26T03:16:50.372Z,8.48
2018-09-26T03:17:30.918Z,8.42
2018-09-26T03:18:11.449Z,8.38
2018-09-26T03:18:52.005Z,8.42
2018-09-26T03:19:32.564Z,8.34
2018-09-26T03:20:13.140Z,8.42
2018-09-26T03:20:53.694Z,8.37
2018-09-26T03:21:34.277Z,8.42
2018-09-26T03:22:14.819Z,8.42
2018-09-26T03:22:55.373Z,8.41
2018-09-26T03:23:35.989Z,8.42
2018-09-26T03:24:16.551Z,8.46
2018-09-26T03:24:57.109Z,8.48
2018-09-26T03:25:37.663Z,8.44
2018-09-26T03:26:18.225Z,8.36
2018-09-26T03:26:58.792Z,8.37
2018-09-26T03:27:39.352Z,8.38
2018-09-26T03:28:19.934Z,8.42
2018-09-26T03:29:00.519Z,8.38
2018-09-26T03:29:41.062Z,8.38
2018-09-26T03:30:21.675Z,8.38
2018-09-26T03:31:02.255Z,8.41
2018-09-26T03:31:42.813Z,8.33
2018-09-26T03:32:23.371Z,8.3
2018-09-26T03:33:03.921Z,8.42
2018-09-26T03:33:44.581Z,8.34
2018-09-26T03:34:25.079Z,8.34
2018-09-26T03:35:05.678Z,8.37
2018-09-26T03:35:46.231Z,8.44
2018-09-26T03:36:26.807Z,8.45
2018-09-26T03:37:07.409Z,8.36
2018-09-26T03:37:47.968Z,8.36
2018-09-26T03:38:28.534Z,8.37
2018-09-26T03:39:09.093Z,8.42
2018-09-26T03:39:49.659Z,8.36
2018-09-26T03:40:30.211Z,8.33
2018-09-26T03:41:10.859Z,8.41
2018-09-26T03:41:51.412Z,8.44
2018-09-26T03:42:31.973Z,8.42
2018-09-26T03:43:12.519Z,8.44
2018-09-26T03:43:53.101Z,8.44
2018-09-26T03:44:33.714Z,8.31
2018-09-26T03:45:14.306Z,8.41
2018-09-26T03:45:54.881Z,8.36
2018-09-26T03:46:35.437Z,8.33
2018-09-26T03:47:15.986Z,8.36
2018-09-26T03:47:56.559Z,8.34
2018-09-26T03:48:37.145Z,8.31
2018-09-26T03:49:17.878Z,8.27
2018-09-26T03:49:58.421Z,8.36
2018-09-26T03:50:38.988Z,8.28
2018-09-26T03:51:19.545Z,8.28
2018-09-26T03:52:00.126Z,8.28
2018-09-26T03:52:40.687Z,8.27
2018-09-26T03:53:21.243Z,8.24
2018-09-26T03:54:01.849Z,8.26
2018-09-26T03:54:42.402Z,8.24
2018-09-26T03:55:22.985Z,8.24
2018-09-26T03:56:03.564Z,8.19
2018-09-26T03:56:44.114Z,8.18
2018-09-26T03:57:24.680Z,8.26
2018-09-26T03:58:05.236Z,8.19
2018-09-26T03:58:45.796Z,8.2
2018-09-26T03:59:26.353Z,8.28
2018-09-26T04:00:06.909Z,8.26
2018-09-26T04:00:47.467Z,8.26
2018-09-26T04:01:28.018Z,8.2
2018-09-26T04:02:08.565Z,8.15
2018-09-26T04:02:49.120Z,8.12
2018-09-26T04:03:29.682Z,8.18
2018-09-26T04:04:10.246Z,8.19
2018-09-26T04:04:50.851Z,8.12
2018-09-26T04:05:31.412Z,8.15
2018-09-26T04:06:11.983Z,8.08
2018-09-26T04:06:52.566Z,8.08
2018-09-26T04:07:33.135Z,8.15
2018-09-26T04:08:13.710Z,8.19
2018-09-26T04:08:54.270Z,8.28
2018-09-26T04:09:34.818Z,8.42
2018-09-26T04:10:15.352Z,8.51
2018-09-26T04:10:55.919Z,8.76
2018-09-26T04:11:36.497Z,8.95
2018-09-26T04:12:17.079Z,9
2018-09-26T04:12:57.698Z,9.19
2018-09-26T04:13:38.196Z,9.23
2018-09-26T04:14:18.748Z,9.4
2018-09-26T04:14:59.331Z,9.5
2018-09-26T04:15:40.000Z,9.59
2018-09-26T04:16:20.471Z,9.64
2018-09-26T04:17:01.027Z,9.73
2018-09-26T04:17:41.584Z,9.77
2018-09-26T04:18:22.159Z,9.83
2018-09-26T04:19:02.714Z,9.97
2018-09-26T04:19:43.299Z,9.98
2018-09-26T04:20:23.940Z,9.97
2018-09-26T04:21:04.503Z,10.07
2018-09-26T04:21:45.114Z,10.13
2018-09-26T04:22:25.687Z,10.15
2018-09-26T04:23:06.258Z,10.19
2018-09-26T04:23:46.815Z,10.22
2018-09-26T04:24:27.382Z,10.25
2018-09-26T04:25:07.939Z,10.33
2018-09-26T04:25:48.506Z,10.28
2018-09-26T04:26:29.271Z,10.31
2018-09-26T04:27:09.728Z,10.38
2018-09-26T04:27:50.372Z,10.48
2018-09-26T04:28:30.795Z,10.42
2018-09-26T04:29:11.411Z,10.41
2018-09-26T04:29:51.908Z,10.51
2018-09-26T04:30:32.683Z,10.63
2018-09-26T04:31:13.022Z,10.54
2018-09-26T04:31:53.588Z,10.63
2018-09-26T04:32:34.222Z,10.68
2018-09-26T04:33:15.023Z,10.69
2018-09-26T04:33:55.303Z,10.68
2018-09-26T04:34:35.835Z,10.69
2018-09-26T04:35:16.431Z,10.78
2018-09-26T04:35:56.994Z,10.75
2018-09-26T04:36:37.560Z,10.76
2018-09-26T04:37:18.120Z,10.76
2018-09-26T04:37:58.675Z,10.86
2018-09-26T04:38:39.343Z,10.89
2018-09-26T04:39:19.817Z,10.9
2018-09-26T04:40:00.397Z,10.86
2018-09-26T04:40:40.959Z,10.79
2018-09-26T04:41:21.510Z,10.76
2018-09-26T04:42:02.114Z,10.69
2018-09-26T04:42:42.689Z,10.76
2018-09-26T04:43:23.318Z,10.59
2018-09-26T04:44:03.807Z,10.59
2018-09-26T04:44:44.368Z,10.64
2018-09-26T04:45:24.914Z,10.57
2018-09-26T04:46:05.471Z,10.67
2018-09-26T04:46:46.040Z,10.64
2018-09-26T04:47:26.598Z,10.59
2018-09-26T04:48:07.173Z,10.67
2018-09-26T04:48:47.735Z,10.69
2018-09-26T04:49:28.307Z,10.68
2018-09-26T04:50:08.883Z,10.76
2018-09-26T04:50:49.566Z,10.72
2018-09-26T04:51:30.202Z,10.72
2018-09-26T04:52:16.622Z,10.67
2018-09-26T04:52:57.484Z,10.68
2018-09-26T04:53:38.096Z,10.59
2018-09-26T04:54:18.665Z,10.54
2018-09-26T04:54:59.213Z,10.63
2018-09-26T04:55:39.805Z,10.6
2018-09-26T04:56:23.626Z,10.63
2018-09-26T04:57:04.883Z,10.57
2018-09-26T04:57:45.301Z,10.51
2018-09-26T04:58:25.823Z,10.46
2018-09-26T04:59:06.395Z,10.42
2018-09-26T04:59:46.970Z,10.42
2018-09-26T05:00:27.512Z,10.37
2018-09-26T05:01:08.072Z,10.46
2018-09-26T05:01:48.673Z,10.38
2018-09-26T05:02:29.222Z,10.41
2018-09-26T05:03:09.783Z,10.35
2018-09-26T05:03:50.343Z,10.37
2018-09-26T05:04:30.909Z,10.31
2018-09-26T05:05:11.468Z,10.31
2018-09-26T05:05:52.027Z,10.4
2018-09-26T05:06:32.574Z,10.53
2018-09-26T05:07:13.144Z,10.42
2018-09-26T05:07:53.760Z,10.49
2018-09-26T05:08:34.343Z,10.48
2018-09-26T05:09:14.911Z,10.37
2018-09-26T05:09:55.464Z,10.3
2018-09-26T05:10:36.035Z,10.38
2018-09-26T05:11:16.595Z,10.33
2018-09-26T05:11:57.147Z,10.31
2018-09-26T05:12:37.731Z,10.33
2018-09-26T05:13:18.303Z,10.31
2018-09-26T05:13:58.890Z,10.33
2018-09-26T05:14:39.449Z,10.25
2018-09-26T05:15:20.002Z,10.34
2018-09-26T05:16:00.559Z,10.42
2018-09-26T05:16:41.119Z,10.23
2018-09-26T05:17:21.674Z,10.31
2018-09-26T05:18:02.233Z,10.28
2018-09-26T05:18:42.811Z,10.4
2018-09-26T05:19:23.380Z,10.46
2018-09-26T05:20:04.007Z,10.61
2018-09-26T05:20:44.566Z,10.61
2018-09-26T05:21:25.133Z,10.71
2018-09-26T05:22:05.696Z,10.79
2018-09-26T05:22:46.277Z,10.76
2018-09-26T05:23:26.821Z,10.75
2018-09-26T05:24:07.405Z,10.82
2018-09-26T05:24:47.971Z,10.84
2018-09-26T05:25:28.601Z,10.82
2018-09-26T05:26:09.152Z,10.84
2018-09-26T05:26:49.714Z,10.79
2018-09-26T05:27:30.286Z,10.82
2018-09-26T05:28:10.843Z,10.84
2018-09-26T05:28:51.438Z,10.86
2018-09-26T05:29:31.988Z,10.9
2018-09-26T05:30:12.561Z,10.92
2018-09-26T05:30:53.091Z,11.02
2018-09-26T05:31:33.671Z,10.92
2018-09-26T05:32:14.231Z,10.99
2018-09-26T05:32:54.873Z,10.99
2018-09-26T05:33:35.480Z,10.9
2018-09-26T05:34:15.983Z,10.92
2018-09-26T05:34:56.630Z,10.9
2018-09-26T05:35:37.243Z,11.04
2018-09-26T05:36:17.831Z,10.93
2018-09-26T05:36:58.412Z,10.92
2018-09-26T05:37:38.981Z,10.99
2018-09-26T05:38:19.592Z,10.92
2018-09-26T05:39:00.196Z,10.94
2018-09-26T05:39:40.776Z,10.82
2018-09-26T05:40:21.455Z,10.79
2018-09-26T05:41:02.078Z,10.61
2018-09-26T05:41:42.863Z,10.44
2018-09-26T05:42:23.523Z,10.38
2018-09-26T05:43:04.097Z,10.22
2018-09-26T05:43:44.768Z,10.16
2018-09-26T05:44:25.380Z,10.1
2018-09-26T05:45:06.528Z,9.92
2018-09-26T05:45:47.144Z,9.86
2018-09-26T05:46:27.736Z,9.74
2018-09-26T05:47:08.343Z,9.65
2018-09-26T05:47:48.934Z,9.68
2018-09-26T05:48:29.512Z,9.5
2018-09-26T05:49:10.512Z,9.56
2018-09-26T05:49:50.945Z,9.48
2018-09-26T05:50:31.515Z,9.51
2018-09-26T05:51:12.093Z,9.36
2018-09-26T05:51:52.749Z,9.37
2018-09-26T05:52:33.347Z,9.36
2018-09-26T05:53:14.227Z,9.31
2018-09-26T05:53:54.779Z,9.21
2018-09-26T05:54:35.409Z,9.21
2018-09-26T05:55:15.954Z,9.16
2018-09-26T05:55:56.609Z,9.08
2018-09-26T05:56:37.075Z,9.06
2018-09-26T05:57:17.714Z,9
2018-09-26T05:57:58.273Z,8.91
2018-09-26T05:58:38.901Z,8.91
2018-09-26T05:59:19.661Z,8.85
2018-09-26T06:00:00.485Z,8.78
2018-09-26T06:00:41.417Z,8.79
2018-09-26T06:01:22.248Z,8.76
2018-09-26T06:02:02.905Z,8.76
2018-09-26T06:02:43.581Z,8.69
2018-09-26T06:03:24.161Z,8.74
2018-09-26T06:04:05.105Z,8.7
2018-09-26T06:04:45.907Z,8.69
2018-09-26T06:05:26.949Z,8.66
2018-09-26T06:06:07.519Z,8.66
2018-09-26T06:06:48.245Z,8.64
2018-09-26T06:07:28.809Z,8.73
2018-09-26T06:08:10.173Z,8.67
2018-09-26T06:08:50.738Z,8.64
2018-09-26T06:09:31.581Z,8.6
2018-09-26T06:10:12.269Z,8.56
2018-09-26T06:10:53.056Z,8.63
2018-09-26T06:11:33.643Z,8.67
2018-09-26T06:12:14.267Z,8.51
2018-09-26T06:12:55.088Z,8.53
2018-09-26T06:13:36.462Z,8.6
2018-09-26T06:14:16.583Z,8.51
2018-09-26T06:14:57.265Z,8.64
2018-09-26T06:15:37.849Z,8.63
2018-09-26T06:16:18.552Z,8.56
2018-09-26T06:16:59.158Z,8.52
2018-09-26T06:17:39.729Z,8.56
2018-09-26T06:18:20.380Z,8.69
2018-09-26T06:19:01.048Z,8.6
2018-09-26T06:19:41.600Z,8.6
2018-09-26T06:20:22.203Z,8.61
2018-09-26T06:21:02.861Z,8.61
2018-09-26T06:21:43.553Z,8.6
2018-09-26T06:22:24.222Z,8.6
2018-09-26T06:23:05.089Z,8.63
2018-09-26T06:23:45.661Z,8.64
2018-09-26T06:24:26.269Z,8.66
2018-09-26T06:25:06.941Z,8.69
2018-09-26T06:25:47.504Z,8.61
2018-09-26T06:26:28.160Z,8.64
2018-09-26T06:27:08.746Z,8.66
2018-09-26T06:27:49.398Z,8.71
2018-09-26T06:28:30.066Z,8.71
2018-09-26T06:29:10.662Z,8.66
2018-09-26T06:29:51.287Z,8.67
2018-09-26T06:30:31.899Z,8.7
2018-09-26T06:31:12.498Z,8.78
2018-09-26T06:31:53.149Z,8.78
2018-09-26T06:32:33.863Z,8.79
2018-09-26T06:33:14.562Z,8.79
2018-09-26T06:33:55.340Z,8.84
2018-09-26T06:34:38.737Z,8.84
2018-09-26T06:35:18.352Z,8.89
2018-09-26T06:35:59.147Z,8.74
2018-09-26T06:36:39.739Z,8.89
2018-09-26T06:37:20.326Z,8.78
2018-09-26T06:38:01.131Z,8.74
2018-09-26T06:38:41.800Z,8.84
2018-09-26T06:39:22.421Z,8.88
2018-09-26T06:40:03.016Z,8.84
2018-09-26T06:40:43.576Z,8.88
2018-09-26T06:41:24.251Z,8.85
2018-09-26T06:42:04.829Z,8.91
2018-09-26T06:42:45.397Z,8.89
2018-09-26T06:43:26.040Z,8.92
2018-09-26T06:44:06.628Z,8.94
2018-09-26T06:44:47.267Z,8.92
2018-09-26T06:45:27.863Z,8.94
2018-09-26T06:46:08.651Z,8.87
2018-09-26T06:46:49.256Z,8.88
2018-09-26T06:47:29.908Z,8.88
2018-09-26T06:48:10.486Z,8.95
2018-09-26T06:48:51.115Z,8.95
2018-09-26T06:49:31.712Z,8.95
2018-09-26T06:50:12.302Z,8.99
2018-09-26T06:50:52.876Z,8.99
2018-09-26T06:51:33.507Z,8.99
2018-09-26T06:52:14.095Z,8.97
2018-09-26T06:52:54.693Z,8.94
2018-09-26T06:53:35.319Z,8.89
2018-09-26T06:54:15.919Z,8.89
2018-09-26T06:54:56.528Z,8.92
2018-09-26T06:55:37.108Z,8.99
2018-09-26T06:56:17.736Z,8.95
2018-09-26T06:56:58.279Z,8.94
2018-09-26T06:57:38.932Z,8.94
2018-09-26T06:58:19.524Z,8.91
2018-09-26T06:59:00.388Z,8.87
2018-09-26T06:59:41.036Z,8.92
2018-09-26T07:00:21.688Z,8.91
2018-09-26T07:01:02.224Z,8.92
2018-09-26T07:01:42.841Z,9.03
2018-09-26T07:02:23.441Z,8.99
2018-09-26T07:03:04.026Z,9
2018-09-26T07:03:44.609Z,8.97
2018-09-26T07:04:25.193Z,9.03
2018-09-26T07:05:05.784Z,9.02
2018-09-26T07:05:46.353Z,9.08
2018-09-26T07:06:27.101Z,9.06
2018-09-26T07:07:07.676Z,9.06
2018-09-26T07:07:48.298Z,9.22
2018-09-26T07:08:28.904Z,9.13
2018-09-26T07:09:09.503Z,9.22
2018-09-26T07:09:50.101Z,9.32
2018-09-26T07:10:30.704Z,9.26
2018-09-26T07:11:11.273Z,9.25
2018-09-26T07:11:51.868Z,9.26
2018-09-26T07:12:32.500Z,9.26
2018-09-26T07:13:13.047Z,9.29
2018-09-26T07:13:53.665Z,9.32
2018-09-26T07:14:34.250Z,9.32
2018-09-26T07:15:14.873Z,9.31
2018-09-26T07:15:55.467Z,9.36
2018-09-26T07:16:36.003Z,9.36
2018-09-26T07:17:16.562Z,9.34
2018-09-26T07:17:57.167Z,9.41
2018-09-26T07:18:37.706Z,9.36
2018-09-26T07:19:18.517Z,9.5
2018-09-26T07:19:58.981Z,9.55
2018-09-26T07:20:39.548Z,9.51
2018-09-26T07:21:20.140Z,9.56
2018-09-26T07:22:00.734Z,9.74
2018-09-26T07:22:41.326Z,9.8
2018-09-26T07:23:21.885Z,10.05
2018-09-26T07:24:02.495Z,10.2
2018-09-26T07:24:43.039Z,10.34
2018-09-26T07:25:23.626Z,10.4
2018-09-26T07:26:04.168Z,10.48
2018-09-26T07:26:44.783Z,10.6
2018-09-26T07:27:25.399Z,10.72
2018-09-26T07:28:06.038Z,10.78
2018-09-26T07:28:46.618Z,10.86
2018-09-26T07:29:27.165Z,10.87
2018-09-26T07:30:07.814Z,11.08
2018-09-26T07:30:48.392Z,11.23
2018-09-26T07:31:29.017Z,11.18
2018-09-26T07:32:09.590Z,11.4
2018-09-26T07:32:50.137Z,11.41
2018-09-26T07:33:30.717Z,11.41
2018-09-26T07:34:11.373Z,11.33
2018-09-26T07:34:51.969Z,11.36
2018-09-26T07:35:32.548Z,11.25
2018-09-26T07:36:13.122Z,11.25
2018-09-26T07:36:53.748Z,11.25
2018-09-26T07:37:34.314Z,11.23
2018-09-26T07:38:14.865Z,11.29
2018-09-26T07:38:55.444Z,11.23
2018-09-26T07:39:36.005Z,11.37
2018-09-26T07:40:16.580Z,11.35
2018-09-26T07:40:57.158Z,11.35
2018-09-26T07:41:37.718Z,11.36
2018-09-26T07:42:18.340Z,11.26
2018-09-26T07:42:58.896Z,11.41
2018-09-26T07:43:39.465Z,11.51
2018-09-26T07:44:20.037Z,11.6
2018-09-26T07:45:00.599Z,11.95
2018-09-26T07:45:41.196Z,12.17
2018-09-26T07:46:21.743Z,12.46
2018-09-26T07:47:02.311Z,12.55
2018-09-26T07:47:42.874Z,12.72
2018-09-26T07:48:23.436Z,12.95
2018-09-26T07:49:04.000Z,13.04
2018-09-26T07:49:44.572Z,13.22
2018-09-26T07:50:25.169Z,13.35
2018-09-26T07:51:05.728Z,13.37
2018-09-26T07:51:46.363Z,13.39
2018-09-26T07:52:26.978Z,13.35
2018-09-26T07:53:07.716Z,13.25
2018-09-26T07:53:48.188Z,13.08
2018-09-26T07:54:28.811Z,13.04
2018-09-26T07:55:09.381Z,13.04
2018-09-26T07:55:49.951Z,12.94
2018-09-26T07:56:30.565Z,13.08
2018-09-26T07:57:11.234Z,13.11
2018-09-26T07:57:51.814Z,13.09
2018-09-26T07:58:32.394Z,13.31
2018-09-26T07:59:13.096Z,13.37
2018-09-26T07:59:53.605Z,13.44
2018-09-26T08:00:34.188Z,13.47
2018-09-26T08:01:14.738Z,13.5
2018-09-26T08:01:55.385Z,13.57
2018-09-26T08:02:35.955Z,13.67
2018-09-26T08:03:16.513Z,13.62
2018-09-26T08:03:57.274Z,13.65
2018-09-26T08:04:37.845Z,13.67
2018-09-26T08:05:18.436Z,13.62
2018-09-26T08:05:59.091Z,13.72
2018-09-26T08:06:39.734Z,13.72
2018-09-26T08:07:20.303Z,13.77
2018-09-26T08:08:00.907Z,13.77
2018-09-26T08:08:41.468Z,13.7
2018-09-26T08:09:22.151Z,13.72
2018-09-26T08:10:02.733Z,13.47
2018-09-26T08:10:43.307Z,13.39
2018-09-26T08:11:24.040Z,13.37
2018-09-26T08:12:06.378Z,13.3
2018-09-26T08:12:47.484Z,13.31
2018-09-26T08:13:29.147Z,13.2
2018-09-26T08:14:10.329Z,13.18
2018-09-26T08:14:50.930Z,13.09
2018-09-26T08:15:31.523Z,13.03
2018-09-26T08:16:13.658Z,12.95
2018-09-26T08:16:54.175Z,12.9
2018-09-26T08:17:35.046Z,12.95
2018-09-26T08:18:15.978Z,12.95
2018-09-26T08:18:56.680Z,12.95
2018-09-26T08:19:38.190Z,12.86
2018-09-26T08:20:18.271Z,12.86
2018-09-26T08:20:58.899Z,12.9
2018-09-26T08:21:39.624Z,12.95
2018-09-26T08:22:20.198Z,12.9
2018-09-26T08:23:01.281Z,12.98
2018-09-26T08:23:41.759Z,12.9
2018-09-26T08:24:22.396Z,12.95
2018-09-26T08:25:02.884Z,13.08
2018-09-26T08:25:43.441Z,13.11
2018-09-26T08:26:24.018Z,13.23
2018-09-26T08:27:04.657Z,13.39
2018-09-26T08:27:45.515Z,13.44
2018-09-26T08:28:26.088Z,13.37
2018-09-26T08:29:06.649Z,13.42
2018-09-26T08:29:47.272Z,13.46
2018-09-26T08:30:27.839Z,13.39
2018-09-26T08:31:08.474Z,13.37
2018-09-26T08:31:49.048Z,13.47
2018-09-26T08:32:29.686Z,13.42
2018-09-26T08:33:10.268Z,13.54
2018-09-26T08:33:50.866Z,13.52
2018-09-26T08:34:31.442Z,13.62
2018-09-26T08:35:12.112Z,13.71
2018-09-26T08:35:52.690Z,13.77
2018-09-26T08:36:33.326Z,13.79
2018-09-26T08:37:13.889Z,13.89
2018-09-26T08:37:54.429Z,13.95
2018-09-26T08:38:37.614Z,14.11
2018-09-26T08:39:17.223Z,14.2
2018-09-26T08:39:57.806Z,14.22
2018-09-26T08:40:38.398Z,14.23
2018-09-26T08:41:19.063Z,14.3
2018-09-26T08:41:59.637Z,14.41
2018-09-26T08:42:40.190Z,14.48
2018-09-26T08:43:20.756Z,14.48
2018-09-26T08:44:01.372Z,14.53
2018-09-26T08:44:41.924Z,14.59
2018-09-26T08:45:22.521Z,14.44
2018-09-26T08:46:03.095Z,14.55
2018-09-26T08:46:43.681Z,14.58
2018-09-26T08:47:24.258Z,14.51
2018-09-26T08:48:04.821Z,14.58
2018-09-26T08:48:45.381Z,14.58
2018-09-26T08:49:26.018Z,14.53
2018-09-26T08:50:06.584Z,14.5
2018-09-26T08:50:47.135Z,14.43
2018-09-26T08:51:27.720Z,14.37
2018-09-26T08:52:08.286Z,14.32
2018-09-26T08:52:48.898Z,14.17
2018-09-26T08:53:29.420Z,14.15
2018-09-26T08:54:09.997Z,14.08
2018-09-26T08:54:50.561Z,14.08
2018-09-26T08:55:31.110Z,13.97
2018-09-26T08:56:11.724Z,13.87
2018-09-26T08:56:52.295Z,13.89
2018-09-26T08:57:32.875Z,13.79
2018-09-26T08:58:13.511Z,13.77